Time;durP1;ratioP1;P1;durP2;ratioP2;P2;SDS_P1;SDS_P2;PMS_P1;PMS_P2;Temp;Humidity;BMP_temperature;BMP_pressure;BME280_temperature;BME280_humidity;BME280_pressure;Samples;Min_cycle;Max_cycle;Signal;HPM_P1;HPM_P2
2021/01/30 00:02:03;;;;;;;2.35;1.75;;;8.40;96.90;;;;;;6246687;28;20132;-77
2021/01/30 00:05:07;;;;;;;5.57;1.45;;;8.40;96.40;;;;;;6245962;28;20422;-77
2021/01/30 00:08:10;;;;;;;2.55;0.98;;;8.40;96.50;;;;;;6246128;28;20439;-76
2021/01/30 00:11:12;;;;;;;3.63;0.90;;;8.40;96.50;;;;;;6247343;28;20050;-76
2021/01/30 00:14:13;;;;;;;3.80;1.02;;;8.40;96.30;;;;;;6247522;28;20095;-76
2021/01/30 00:17:14;;;;;;;1.55;1.10;;;8.40;96.10;;;;;;6248109;28;20046;-76
2021/01/30 00:20:21;;;;;;;4.20;1.25;;;8.40;96.30;;;;;;6246398;28;20077;-75
2021/01/30 00:23:22;;;;;;;6.57;1.30;;;8.40;96.20;;;;;;6246464;28;20056;-75
2021/01/30 00:26:23;;;;;;;5.07;1.00;;;8.40;96.00;;;;;;6246005;28;20072;-75
2021/01/30 00:29:27;;;;;;;3.83;1.40;;;8.50;95.80;;;;;;6246355;28;20095;-76
2021/01/30 00:32:28;;;;;;;7.78;1.38;;;8.50;95.80;;;;;;6248964;28;20056;-76
2021/01/30 00:35:32;;;;;;;1.77;1.10;;;8.40;95.30;;;;;;6250773;28;20133;-75
2021/01/30 00:38:33;;;;;;;2.78;1.13;;;8.40;95.20;;;;;;6250704;28;20128;-78
2021/01/30 00:41:35;;;;;;;2.20;1.20;;;8.40;95.20;;;;;;6252159;28;20056;-76
2021/01/30 00:44:37;;;;;;;4.30;1.10;;;8.50;94.80;;;;;;6251180;28;20049;-76
2021/01/30 00:47:38;;;;;;;3.15;0.80;;;8.50;94.40;;;;;;6253140;28;20052;-77
2021/01/30 00:50:40;;;;;;;1.63;0.85;;;8.60;94.30;;;;;;6250138;28;20042;-77
2021/01/30 00:53:42;;;;;;;1.50;0.98;;;8.60;93.90;;;;;;6250512;28;20099;-77
2021/01/30 00:56:43;;;;;;;4.65;2.50;;;8.60;93.60;;;;;;6250560;28;20053;-77
2021/01/30 00:59:45;;;;;;;0.80;0.70;;;8.60;93.60;;;;;;6250163;28;20049;-77
2021/01/30 01:02:46;;;;;;;4.20;0.70;;;8.70;93.60;;;;;;6250558;28;20069;-76
2021/01/30 01:05:48;;;;;;;1.35;0.85;;;8.70;92.90;;;;;;6250166;28;20065;-77
2021/01/30 01:08:49;;;;;;;8.57;1.88;;;8.60;92.80;;;;;;6249892;28;20049;-77
2021/01/30 01:11:52;;;;;;;3.38;1.02;;;8.60;92.70;;;;;;6249890;28;20084;-76
2021/01/30 01:14:53;;;;;;;3.75;0.75;;;8.60;92.60;;;;;;6249946;28;20056;-75
2021/01/30 01:17:55;;;;;;;1.05;0.70;;;8.70;92.40;;;;;;6249551;28;20073;-76
2021/01/30 01:20:58;;;;;;;2.33;1.33;;;8.60;92.60;;;;;;6249408;28;20053;-76
2021/01/30 01:24:00;;;;;;;3.58;1.00;;;8.60;92.40;;;;;;6249597;28;20042;-76
2021/01/30 01:27:01;;;;;;;4.75;1.10;;;8.60;92.40;;;;;;6248956;28;20045;-76
2021/01/30 01:30:05;;;;;;;2.50;1.40;;;8.60;92.60;;;;;;6247101;28;20057;-76
2021/01/30 01:33:07;;;;;;;3.50;1.02;;;8.50;92.60;;;;;;6249997;28;20487;-76
2021/01/30 01:36:12;;;;;;;3.53;1.65;;;8.50;92.80;;;;;;6249247;28;20044;-76
2021/01/30 01:39:13;;;;;;;1.67;1.42;;;8.50;92.90;;;;;;6248700;28;20045;-76
2021/01/30 01:42:17;;;;;;;3.35;1.08;;;8.50;93.60;;;;;;6248550;28;20128;-76
2021/01/30 01:45:18;;;;;;;3.67;0.80;;;8.40;94.10;;;;;;6248334;28;20454;-76
2021/01/30 01:48:32;;;;;;;3.85;0.75;;;8.30;94.50;;;;;;6248782;28;20056;-76
2021/01/30 01:51:39;;;;;;;3.03;0.77;;;8.30;94.70;;;;;;6248473;28;20053;-76
2021/01/30 01:54:41;;;;;;;2.40;0.82;;;8.20;94.80;;;;;;6248455;28;20095;-76
2021/01/30 01:57:46;;;;;;;2.90;1.77;;;8.20;94.80;;;;;;6248701;28;20560;-76
2021/01/30 02:00:49;;;;;;;2.13;0.82;;;8.20;95.10;;;;;;6248106;28;20095;-76
2021/01/30 02:03:55;;;;;;;2.75;0.70;;;8.20;95.30;;;;;;6248446;28;20056;-76
2021/01/30 02:06:57;;;;;;;2.40;1.25;;;8.20;95.50;;;;;;6248594;28;20045;-76
2021/01/30 02:09:59;;;;;;;1.73;0.75;;;8.20;95.70;;;;;;6247979;28;20050;-76
2021/01/30 02:13:06;;;;;;;1.77;1.05;;;8.20;96.10;;;;;;6248744;28;20045;-76
2021/01/30 02:16:23;;;;;;;6.28;3.97;;;8.10;96.50;;;;;;6247894;28;20048;-76
2021/01/30 02:20:01;;;;;;;3.20;1.00;;;8.10;96.80;;;;;;6247792;28;20051;-76
2021/01/30 02:23:42;;;;;;;4.53;1.20;;;8.10;96.90;;;;;;6247966;28;20037;-76
2021/01/30 02:27:21;;;;;;;4.63;0.90;;;7.90;97.10;;;;;;6247628;28;20532;-76
2021/01/30 02:30:40;;;;;;;4.13;1.67;;;7.90;97.80;;;;;;6247404;28;20124;-76
2021/01/30 02:34:07;;;;;;;1.85;1.10;;;7.80;98.10;;;;;;6248192;28;20049;-76
2021/01/30 02:37:13;;;;;;;2.70;1.30;;;7.80;98.40;;;;;;6248042;28;20052;-77
2021/01/30 02:40:17;;;;;;;5.10;0.80;;;7.80;98.90;;;;;;6247357;28;20128;-76
2021/01/30 02:43:22;;;;;;;1.98;0.82;;;7.70;99.40;;;;;;6247223;28;20068;-76
2021/01/30 02:46:28;;;;;;;4.05;1.70;;;7.70;99.90;;;;;;6247561;28;20048;-76
2021/01/30 02:49:34;;;;;;;3.95;2.17;;;7.70;99.90;;;;;;6248006;28;20114;-76
2021/01/30 02:52:38;;;;;;;6.75;1.13;;;7.70;99.90;;;;;;6247510;28;20045;-76
2021/01/30 02:55:39;;;;;;;2.22;1.10;;;7.70;99.90;;;;;;6247039;28;20128;-76
2021/01/30 02:58:45;;;;;;;2.75;1.00;;;7.70;99.90;;;;;;6246809;28;20521;-76
2021/01/30 03:01:47;;;;;;;8.55;1.50;;;7.70;99.90;;;;;;6247752;28;20415;-76
2021/01/30 03:04:51;;;;;;;2.85;0.98;;;7.70;99.90;;;;;;6247084;28;20421;-77
2021/01/30 03:08:16;;;;;;;3.15;1.13;;;7.70;99.90;;;;;;6246754;28;20052;-76
2021/01/30 03:11:25;;;;;;;11.30;2.53;;;7.70;99.90;;;;;;6246824;28;20052;-77
2021/01/30 03:14:28;;;;;;;1.30;0.82;;;7.60;99.90;;;;;;6246859;28;20041;-76
2021/01/30 03:17:32;;;;;;;8.48;1.10;;;7.60;99.90;;;;;;6247279;28;20541;-76
2021/01/30 03:20:37;;;;;;;2.00;1.30;;;7.60;99.90;;;;;;6246517;28;20487;-77
2021/01/30 03:23:39;;;;;;;3.40;1.10;;;7.50;99.90;;;;;;6247156;28;20049;-77
2021/01/30 03:26:44;;;;;;;5.03;1.65;;;7.50;99.90;;;;;;6246788;28;20080;-76
2021/01/30 03:29:45;;;;;;;6.40;1.40;;;7.50;99.90;;;;;;6246950;28;20148;-76
2021/01/30 03:32:46;;;;;;;2.75;1.00;;;7.50;99.90;;;;;;6246933;28;20132;-77
2021/01/30 03:35:48;;;;;;;1.65;1.15;;;7.50;99.90;;;;;;6248083;28;20502;-75
2021/01/30 03:38:50;;;;;;;1.70;0.70;;;7.50;99.90;;;;;;6247781;28;20148;-75
2021/01/30 03:41:51;;;;;;;2.22;1.52;;;7.50;99.90;;;;;;6247717;28;20049;-75
2021/01/30 03:44:52;;;;;;;1.65;1.00;;;7.50;99.90;;;;;;6248159;28;20045;-75
2021/01/30 03:47:54;;;;;;;10.65;1.75;;;7.50;99.90;;;;;;6247343;28;20507;-75
2021/01/30 03:50:55;;;;;;;3.03;1.05;;;7.50;99.90;;;;;;6247583;28;20053;-75
2021/01/30 03:53:58;;;;;;;6.18;1.23;;;7.50;99.90;;;;;;6246433;28;20528;-75
2021/01/30 03:56:59;;;;;;;1.83;0.82;;;7.50;99.90;;;;;;6246783;28;20045;-75
2021/01/30 04:00:00;;;;;;;3.13;1.23;;;7.50;99.90;;;;;;6245860;28;20129;-75
2021/01/30 04:03:02;;;;;;;4.05;1.13;;;7.50;99.90;;;;;;6246188;28;20069;-75
2021/01/30 04:06:03;;;;;;;3.65;1.05;;;7.50;99.90;;;;;;6246533;28;20049;-75
2021/01/30 04:09:07;;;;;;;7.68;1.60;;;7.60;99.90;;;;;;6251482;28;20054;-75
2021/01/30 04:12:09;;;;;;;10.40;2.08;;;7.50;99.90;;;;;;6250974;28;20108;-75
2021/01/30 04:15:13;;;;;;;5.18;2.88;;;7.60;99.90;;;;;;6250688;28;20522;-75
2021/01/30 04:18:15;;;;;;;7.80;2.13;;;7.50;99.90;;;;;;6251098;28;20037;-75
2021/01/30 04:21:16;;;;;;;5.35;2.05;;;7.50;99.90;;;;;;6250808;28;20243;-75
2021/01/30 04:24:18;;;;;;;5.75;2.58;;;7.60;99.90;;;;;;6250730;28;20053;-75
2021/01/30 04:27:20;;;;;;;12.35;2.83;;;7.60;99.90;;;;;;6250565;28;20132;-75
2021/01/30 04:30:24;;;;;;;14.57;3.20;;;7.50;99.90;;;;;;6250480;28;20065;-75
2021/01/30 04:33:25;;;;;;;13.20;3.60;;;7.60;99.90;;;;;;6250857;28;20053;-75
2021/01/30 04:36:26;;;;;;;5.38;2.97;;;7.50;99.90;;;;;;6250364;28;20183;-75
2021/01/30 04:39:28;;;;;;;10.73;3.58;;;7.60;99.90;;;;;;6250206;28;20140;-75
2021/01/30 04:42:37;;;;;;;11.52;2.92;;;7.60;99.90;;;;;;6250483;28;20495;-75
2021/01/30 04:45:48;;;;;;;8.73;2.55;;;7.60;99.90;;;;;;6250624;28;20052;-74
2021/01/30 04:49:00;;;;;;;6.45;2.17;;;7.60;99.90;;;;;;6250084;28;20049;-75
2021/01/30 04:52:08;;;;;;;5.55;3.83;;;7.60;99.90;;;;;;6249857;28;20053;-76
2021/01/30 04:55:20;;;;;;;;;;;7.70;99.50;;;;;;6250794;28;20056;-77
2021/01/30 04:58:31;;;;;;;3.72;2.33;;;7.70;99.50;;;;;;6249883;28;20324;-76
2021/01/30 05:01:41;;;;;;;6.07;2.20;;;7.60;99.20;;;;;;6250481;28;20053;-76
2021/01/30 05:04:47;;;;;;;6.93;2.00;;;7.70;99.10;;;;;;6249976;28;20164;-76
2021/01/30 05:07:53;;;;;;;4.28;2.08;;;7.70;98.30;;;;;;6249977;28;20495;-77
2021/01/30 05:10:59;;;;;;;5.85;2.30;;;7.70;97.90;;;;;;6249319;28;20052;-77
2021/01/30 05:14:06;;;;;;;12.38;1.83;;;7.80;97.80;;;;;;6249501;28;20424;-76
2021/01/30 05:17:13;;;;;;;4.78;1.70;;;7.70;97.30;;;;;;6249737;28;20543;-76
2021/01/30 05:20:16;;;;;;;10.35;2.35;;;7.80;96.90;;;;;;6249029;28;20048;-77
2021/01/30 05:23:18;;;;;;;9.48;2.67;;;7.80;96.70;;;;;;6249237;28;20100;-77
2021/01/30 05:26:28;;;;;;;3.90;2.22;;;7.80;96.70;;;;;;6249683;28;20041;-76
2021/01/30 05:29:36;;;;;;;11.02;2.22;;;7.80;96.50;;;;;;6249756;28;20061;-77
2021/01/30 05:32:45;;;;;;;;;;;7.80;96.20;;;;;;6249731;28;20129;-77
2021/01/30 05:35:54;;;;;;;5.57;2.33;;;7.80;96.10;;;;;;6249162;28;20044;-76
2021/01/30 05:39:06;;;;;;;7.22;2.67;;;7.90;95.50;;;;;;6249366;28;20045;-76
2021/01/30 05:42:14;;;;;;;11.32;2.88;;;7.90;95.10;;;;;;6248509;28;20491;-77
2021/01/30 05:45:34;;;;;;;14.18;4.13;;;7.90;95.20;;;;;;6249052;28;20049;-76
2021/01/30 05:48:39;;;;;;;15.20;2.60;;;7.90;95.40;;;;;;6248685;28;20462;-76
2021/01/30 05:51:46;;;;;;;13.80;2.90;;;7.90;95.20;;;;;;6249056;28;20046;-76
2021/01/30 05:54:48;;;;;;;11.63;2.88;;;7.90;94.70;;;;;;6248931;28;20050;-76
2021/01/30 05:57:50;;;;;;;7.40;2.50;;;7.90;94.60;;;;;;6248927;28;20047;-76
2021/01/30 06:01:22;;;;;;;12.35;3.83;;;7.90;94.30;;;;;;6247774;28;20124;-77
2021/01/30 06:04:27;;;;;;;3.53;2.08;;;7.90;94.30;;;;;;6248530;28;20172;-76
2021/01/30 06:07:32;;;;;;;10.55;3.13;;;7.90;94.10;;;;;;6248145;28;20411;-76
2021/01/30 06:10:33;;;;;;;12.40;6.43;;;7.90;94.10;;;;;;6248203;28;20041;-76
2021/01/30 06:13:52;;;;;;;11.93;4.80;;;7.90;93.80;;;;;;6248596;28;20419;-76
2021/01/30 06:16:59;;;;;;;12.80;3.35;;;7.90;93.50;;;;;;6248060;28;20120;-76
2021/01/30 06:20:10;;;;;;;7.80;2.10;;;7.90;93.60;;;;;;6247791;28;20056;-76
2021/01/30 06:23:13;;;;;;;11.80;5.38;;;7.90;93.20;;;;;;6247920;28;20076;-76
2021/01/30 06:26:20;;;;;;;12.82;2.20;;;7.80;93.30;;;;;;6247987;28;20053;-76
2021/01/30 06:29:35;;;;;;;6.97;2.78;;;7.90;93.40;;;;;;6247396;28;20052;-76
2021/01/30 06:32:41;;;;;;;15.43;3.30;;;7.90;93.30;;;;;;6247730;28;20458;-77
2021/01/30 06:35:42;;;;;;;27.98;13.93;;;7.90;93.40;;;;;;6247636;28;20065;-76
2021/01/30 06:38:47;;;;;;;10.88;5.25;;;7.90;93.30;;;;;;6247263;28;20132;-76
2021/01/30 06:41:54;;;;;;;8.70;2.60;;;7.90;93.30;;;;;;6247711;28;20419;-76
2021/01/30 06:45:03;;;;;;;6.75;1.98;;;7.90;93.60;;;;;;6247274;28;20053;-76
2021/01/30 06:48:08;;;;;;;11.07;4.13;;;7.90;93.40;;;;;;6247573;28;20052;-76
2021/01/30 06:51:28;;;;;;;8.45;3.67;;;7.90;93.60;;;;;;6247169;28;20049;-76
2021/01/30 06:54:30;;;;;;;17.67;2.72;;;7.90;93.70;;;;;;6246910;28;20426;-76
2021/01/30 06:57:33;;;;;;;12.15;2.72;;;7.90;94.00;;;;;;6247343;28;20139;-76
2021/01/30 07:00:37;;;;;;;8.82;2.70;;;7.90;93.90;;;;;;6246313;28;20045;-76
2021/01/30 07:04:01;;;;;;;10.05;2.72;;;7.90;93.70;;;;;;6242779;28;20049;-76
2021/01/30 07:07:09;;;;;;;9.70;2.60;;;7.90;93.60;;;;;;6233665;28;20034;-76
2021/01/30 07:10:22;;;;;;;18.53;3.50;;;7.90;93.80;;;;;;6238025;28;20136;-76
2021/01/30 07:13:45;;;;;;;12.68;5.90;;;7.90;93.80;;;;;;6239923;28;20351;-77
2021/01/30 07:16:55;;;;;;;4.72;3.08;;;7.90;93.70;;;;;;6222128;28;20503;-76
2021/01/30 07:20:05;;;;;;;14.35;3.40;;;7.90;93.60;;;;;;6221961;28;20135;-76
2021/01/30 07:23:11;;;;;;;11.45;3.75;;;8.00;93.50;;;;;;6239372;28;20136;-76
2021/01/30 07:26:21;;;;;;;14.13;4.60;;;8.00;93.40;;;;;;6246526;28;20049;-76
2021/01/30 07:29:34;;;;;;;9.95;2.72;;;8.10;93.20;;;;;;6246679;28;20079;-76
2021/01/30 07:32:38;;;;;;;26.38;13.15;;;8.10;93.20;;;;;;6251206;28;20056;-75
2021/01/30 07:35:48;;;;;;;33.13;17.48;;;8.10;93.10;;;;;;6255096;28;20148;-76
2021/01/30 07:38:56;;;;;;;10.73;5.45;;;8.20;93.10;;;;;;6247068;28;20144;-76
2021/01/30 07:42:02;;;;;;;16.55;7.35;;;8.20;93.10;;;;;;6230077;28;20065;-75
2021/01/30 07:45:11;;;;;;;12.52;2.80;;;8.20;92.60;;;;;;6227476;28;20248;-77
2021/01/30 07:48:19;;;;;;;9.50;3.42;;;8.30;92.70;;;;;;6229621;28;20073;-76
2021/01/30 07:51:24;;;;;;;12.57;3.20;;;8.30;92.50;;;;;;6226599;28;20049;-77
2021/01/30 07:54:26;;;;;;;13.15;2.58;;;8.40;92.30;;;;;;6227140;28;20064;-77
2021/01/30 07:57:59;;;;;;;9.40;3.60;;;8.50;92.30;;;;;;6226879;28;20050;-77
2021/01/30 08:01:12;;;;;;;10.15;2.40;;;8.50;91.90;;;;;;6226715;28;20061;-76
2021/01/30 08:04:50;;;;;;;13.20;3.28;;;8.60;91.90;;;;;;6226312;28;20531;-75
2021/01/30 08:07:56;;;;;;;7.65;2.53;;;8.60;91.90;;;;;;6216051;28;20049;-76
2021/01/30 08:11:02;;;;;;;12.38;4.05;;;8.70;92.00;;;;;;6226248;28;20046;-76
2021/01/30 08:14:20;;;;;;;12.90;2.85;;;8.70;91.60;;;;;;6241224;28;20130;-76
2021/01/30 08:17:37;;;;;;;13.60;3.97;;;8.70;91.50;;;;;;6251037;28;20518;-76
2021/01/30 08:20:45;;;;;;;21.45;11.98;;;8.70;91.40;;;;;;6250243;28;20041;-76
2021/01/30 08:23:54;;;;;;;;;;;8.80;91.70;;;;;;6251148;28;20049;-76
2021/01/30 08:27:02;;;;;;;18.33;3.90;;;8.80;91.70;;;;;;6250584;28;20008;-77
2021/01/30 08:30:07;;;;;;;57.87;25.00;;;8.80;91.30;;;;;;6250425;28;20141;-76
2021/01/30 08:33:09;;;;;;;21.73;8.88;;;8.80;91.20;;;;;;6250665;28;20335;-76
2021/01/30 08:36:32;;;;;;;191.50;101.22;;;8.80;91.10;;;;;;6250262;28;20617;-76
2021/01/30 08:39:36;;;;;;;29.63;12.25;;;8.90;91.00;;;;;;6250049;28;20049;-75
2021/01/30 08:42:54;;;;;;;148.32;84.95;;;8.80;91.00;;;;;;6250321;28;20053;-77
2021/01/30 08:46:18;;;;;;;81.97;46.17;;;8.90;90.90;;;;;;6250719;28;20056;-76
2021/01/30 08:49:23;;;;;;;18.23;10.05;;;8.90;90.70;;;;;;6255793;28;20104;-76
2021/01/30 08:52:37;;;;;;;14.35;3.78;;;8.90;90.50;;;;;;6250452;28;20053;-77
2021/01/30 08:55:56;;;;;;;10.35;3.47;;;8.90;90.30;;;;;;6251173;28;20045;-77
2021/01/30 08:58:57;;;;;;;12.93;4.15;;;8.90;90.30;;;;;;6250660;28;20068;-77
2021/01/30 09:01:58;;;;;;;8.27;3.78;;;8.90;90.10;;;;;;6269430;28;20517;-76
2021/01/30 09:05:01;;;;;;;12.68;4.55;;;8.90;90.10;;;;;;6272880;28;20072;-77
2021/01/30 09:08:35;;;;;;;8.45;2.75;;;8.90;90.10;;;;;;6270122;28;20124;-77
2021/01/30 09:11:41;;;;;;;15.25;3.63;;;9.00;90.20;;;;;;6272232;28;20136;-77
2021/01/30 09:14:42;;;;;;;16.45;5.25;;;9.00;90.10;;;;;;6269454;28;20525;-76
2021/01/30 09:17:44;;;;;;;12.50;3.15;;;9.00;90.70;;;;;;6272332;28;20041;-77
2021/01/30 09:20:56;;;;;;;22.50;5.93;;;9.00;91.10;;;;;;6271570;28;20072;-77
2021/01/30 09:24:37;;;;;;;18.88;4.97;;;9.00;91.30;;;;;;6271996;28;20498;-77
2021/01/30 09:27:48;;;;;;;23.42;5.22;;;8.90;91.70;;;;;;6253977;28;20072;-77
2021/01/30 09:30:55;;;;;;;17.60;4.22;;;8.80;92.40;;;;;;6271524;28;20047;-77
2021/01/30 09:34:02;;;;;;;18.70;5.00;;;8.80;92.30;;;;;;6269410;28;20049;-76
2021/01/30 09:37:03;;;;;;;11.82;4.38;;;8.80;92.60;;;;;;6267586;28;20487;-75
2021/01/30 09:40:09;;;;;;;10.93;3.67;;;8.80;92.90;;;;;;6267214;28;20061;-76
2021/01/30 09:43:11;;;;;;;11.98;5.15;;;8.80;93.30;;;;;;6263510;28;20048;-76
2021/01/30 09:46:20;;;;;;;7.15;2.97;;;8.90;93.30;;;;;;6268612;28;20057;-76
2021/01/30 09:49:24;;;;;;;30.33;4.75;;;8.80;93.20;;;;;;6270493;28;20037;-76
2021/01/30 09:52:25;;;;;;;14.70;3.60;;;8.80;93.50;;;;;;6267445;28;20116;-77
2021/01/30 09:55:27;;;;;;;21.85;7.30;;;8.90;93.70;;;;;;6266497;28;20056;-76
2021/01/30 09:58:29;;;;;;;13.13;5.28;;;8.80;93.90;;;;;;6270450;28;20124;-77
2021/01/30 10:01:34;;;;;;;11.10;2.70;;;8.90;93.80;;;;;;6268730;28;20064;-77
2021/01/30 10:04:35;;;;;;;15.45;3.20;;;8.90;93.80;;;;;;6268463;28;20557;-77
2021/01/30 10:07:37;;;;;;;12.43;2.50;;;9.00;94.20;;;;;;6266111;28;20392;-77
2021/01/30 10:10:39;;;;;;;12.77;2.80;;;8.90;94.20;;;;;;6269622;28;20045;-76
2021/01/30 10:13:44;;;;;;;12.15;3.80;;;9.00;94.50;;;;;;6264557;28;20047;-76
2021/01/30 10:16:58;;;;;;;12.63;3.72;;;8.90;94.70;;;;;;6261937;28;20045;-77
2021/01/30 10:20:04;;;;;;;16.75;3.30;;;8.90;94.90;;;;;;6264142;28;20123;-76
2021/01/30 10:23:08;;;;;;;13.43;3.28;;;8.80;95.20;;;;;;6263487;28;20045;-76
2021/01/30 10:26:14;;;;;;;15.02;2.35;;;8.80;95.50;;;;;;6264862;28;20049;-76
2021/01/30 10:29:19;;;;;;;10.73;3.03;;;8.80;95.80;;;;;;6263443;28;20157;-76
2021/01/30 10:32:25;;;;;;;11.73;2.85;;;8.90;95.90;;;;;;6266483;28;20044;-77
2021/01/30 10:35:29;;;;;;;10.70;2.95;;;8.80;96.00;;;;;;6269781;28;20048;-78
2021/01/30 10:38:33;;;;;;;14.30;2.88;;;8.80;96.30;;;;;;6272154;28;20091;-77
2021/01/30 10:41:35;;;;;;;29.23;6.95;;;8.90;96.50;;;;;;6258376;28;20041;-77
2021/01/30 10:44:38;;;;;;;20.30;5.28;;;8.90;96.70;;;;;;6260139;28;20128;-76
2021/01/30 10:47:40;;;;;;;16.80;3.97;;;8.90;96.90;;;;;;6265595;28;20045;-76
2021/01/30 10:50:43;;;;;;;8.90;3.53;;;8.90;97.20;;;;;;6252047;28;20052;-78
2021/01/30 10:53:46;;;;;;;13.93;3.15;;;9.00;97.70;;;;;;6262307;28;20050;-77
2021/01/30 10:57:02;;;;;;;10.73;2.92;;;9.00;97.70;;;;;;6241944;28;20046;-77
2021/01/30 11:00:23;;;;;;;13.77;4.82;;;9.10;98.10;;;;;;6246762;28;20049;-77
2021/01/30 11:03:27;;;;;;;14.57;2.95;;;9.10;98.00;;;;;;6254532;28;20128;-76
2021/01/30 11:06:31;;;;;;;153.23;76.90;;;9.10;98.10;;;;;;6264291;28;20044;-76
2021/01/30 11:09:34;;;;;;;19.30;6.47;;;9.10;98.20;;;;;;6288405;28;20045;-76
2021/01/30 11:12:35;;;;;;;14.25;3.33;;;9.20;98.10;;;;;;6274602;28;20029;-76
2021/01/30 11:15:41;;;;;;;16.10;4.63;;;9.20;98.20;;;;;;6262026;28;20089;-78
2021/01/30 11:18:47;;;;;;;13.95;3.17;;;9.20;98.30;;;;;;6265424;28;20030;-76
2021/01/30 11:21:50;;;;;;;13.38;3.40;;;9.10;98.50;;;;;;6291483;28;20137;-76
2021/01/30 11:24:53;;;;;;;18.80;5.40;;;9.10;99.10;;;;;;6294253;28;20045;-77
2021/01/30 11:27:54;;;;;;;25.88;6.05;;;9.10;99.50;;;;;;6285752;28;20056;-77
2021/01/30 11:30:56;;;;;;;15.73;4.00;;;9.20;99.40;;;;;;6300226;28;20031;-74
2021/01/30 11:33:59;;;;;;;9.50;2.92;;;9.10;99.80;;;;;;6298209;28;20032;-77
2021/01/30 11:37:01;;;;;;;27.60;3.92;;;9.10;99.60;;;;;;6275249;28;20071;-75
2021/01/30 11:40:04;;;;;;;7.82;3.58;;;9.10;99.60;;;;;;6266875;28;20143;-78
2021/01/30 11:43:06;;;;;;;17.35;3.90;;;9.00;99.90;;;;;;6260765;28;20542;-76
2021/01/30 11:46:08;;;;;;;16.20;3.67;;;9.10;99.90;;;;;;6264676;28;20080;-77
2021/01/30 11:49:09;;;;;;;9.70;3.40;;;9.10;99.90;;;;;;6270419;28;20069;-77
2021/01/30 11:52:16;;;;;;;12.15;3.13;;;9.10;99.90;;;;;;6262886;28;20508;-77
2021/01/30 11:55:20;;;;;;;10.10;3.83;;;9.10;99.90;;;;;;6261685;28;20053;-76
2021/01/30 11:58:22;;;;;;;13.63;2.55;;;9.10;99.90;;;;;;6262915;28;20549;-80
2021/01/30 12:01:24;;;;;;;12.23;3.30;;;9.20;99.90;;;;;;6260044;28;20522;-77
2021/01/30 12:04:25;;;;;;;10.38;2.60;;;9.20;99.90;;;;;;6262077;28;20056;-77
2021/01/30 12:07:27;;;;;;;9.70;3.63;;;9.10;99.90;;;;;;6262342;28;20048;-77
2021/01/30 12:10:28;;;;;;;9.68;3.05;;;9.10;99.90;;;;;;6262168;28;20053;-77
2021/01/30 12:13:30;;;;;;;7.95;2.65;;;9.10;99.90;;;;;;6261962;28;20531;-75
2021/01/30 12:16:32;;;;;;;10.32;2.60;;;9.20;99.90;;;;;;6258153;28;20128;-76
2021/01/30 12:19:33;;;;;;;10.35;2.92;;;9.30;99.90;;;;;;6250028;28;20057;-78
2021/01/30 12:22:35;;;;;;;10.13;2.25;;;9.20;99.90;;;;;;6266365;28;20036;-77
2021/01/30 12:25:36;;;;;;;9.15;2.70;;;9.20;99.90;;;;;;6269442;28;20079;-75
2021/01/30 12:28:37;;;;;;;12.75;2.33;;;9.10;99.90;;;;;;6266101;28;20033;-76
2021/01/30 12:31:40;;;;;;;8.38;2.88;;;9.20;99.90;;;;;;6259435;28;20667;-77
2021/01/30 12:34:41;;;;;;;23.70;4.13;;;9.10;99.90;;;;;;6266184;28;20094;-78
2021/01/30 12:37:43;;;;;;;13.68;3.75;;;9.00;99.90;;;;;;6274075;28;20042;-77
2021/01/30 12:40:47;;;;;;;17.20;3.78;;;8.90;99.90;;;;;;6270680;28;20041;-77
2021/01/30 12:43:48;;;;;;;8.95;2.78;;;9.00;99.90;;;;;;6255727;28;20160;-77
2021/01/30 12:46:51;;;;;;;6.60;1.88;;;9.00;99.90;;;;;;6263234;28;20068;-77
2021/01/30 12:49:52;;;;;;;9.35;3.10;;;8.80;99.90;;;;;;6252058;28;20411;-77
2021/01/30 12:52:54;;;;;;;9.15;2.50;;;8.70;99.90;;;;;;6262291;28;20514;-77
2021/01/30 12:55:55;;;;;;;11.50;5.10;;;8.60;99.90;;;;;;6267846;28;20111;-77
2021/01/30 12:58:56;;;;;;;8.75;2.70;;;8.50;99.90;;;;;;6272823;28;20548;-77
2021/01/30 13:01:58;;;;;;;8.35;2.22;;;8.60;99.90;;;;;;6260098;28;20126;-77
2021/01/30 13:05:00;;;;;;;10.85;2.28;;;8.60;99.90;;;;;;6267141;28;20417;-77
2021/01/30 13:08:01;;;;;;;21.65;2.33;;;8.60;99.90;;;;;;6263434;28;20129;-77
2021/01/30 13:11:03;;;;;;;15.30;2.45;;;8.50;99.90;;;;;;6251710;28;20041;-78
2021/01/30 13:14:04;;;;;;;10.02;2.83;;;8.50;99.90;;;;;;6260426;28;20090;-77
2021/01/30 13:17:07;;;;;;;10.18;3.67;;;8.50;99.90;;;;;;6262172;28;20049;-78
2021/01/30 13:20:09;;;;;;;6.13;2.20;;;8.50;99.90;;;;;;6263013;28;20115;-78
2021/01/30 13:23:11;;;;;;;9.25;2.78;;;8.50;99.90;;;;;;6271344;28;20092;-79
2021/01/30 13:26:13;;;;;;;12.90;4.18;;;8.50;99.90;;;;;;6262161;28;20396;-77
2021/01/30 13:29:18;;;;;;;8.82;2.22;;;8.40;99.90;;;;;;6245273;28;20419;-78
2021/01/30 13:32:20;;;;;;;10.13;2.83;;;8.40;99.90;;;;;;6272371;28;20037;-77
2021/01/30 13:35:25;;;;;;;4.00;1.92;;;8.30;99.90;;;;;;6251241;28;20501;-79
2021/01/30 13:38:26;;;;;;;14.93;3.90;;;8.20;99.90;;;;;;6263370;28;20084;-77
2021/01/30 13:41:27;;;;;;;4.82;2.13;;;8.30;99.90;;;;;;6276193;28;20056;-78
2021/01/30 13:44:30;;;;;;;9.38;3.85;;;8.20;99.90;;;;;;6268866;28;20136;-77
2021/01/30 13:47:33;;;;;;;11.95;2.83;;;8.30;99.90;;;;;;6264893;28;20132;-77
2021/01/30 13:50:34;;;;;;;10.00;3.47;;;8.30;99.90;;;;;;6263080;28;20053;-77
2021/01/30 13:53:35;;;;;;;12.35;4.18;;;8.40;99.90;;;;;;6258698;28;20096;-78
2021/01/30 13:56:38;;;;;;;15.98;6.13;;;8.30;99.90;;;;;;6258546;28;20384;-77
2021/01/30 13:59:39;;;;;;;9.40;5.00;;;8.40;99.90;;;;;;6251207;28;20136;-77
2021/01/30 14:02:42;;;;;;;15.75;4.18;;;8.40;99.90;;;;;;6245639;28;20046;-78
2021/01/30 14:05:43;;;;;;;9.43;3.58;;;8.40;99.90;;;;;;6257883;28;20131;-78
2021/01/30 14:08:45;;;;;;;20.85;7.68;;;8.50;99.90;;;;;;6266891;28;20044;-78
2021/01/30 14:11:46;;;;;;;18.77;4.90;;;8.50;99.90;;;;;;6254088;28;20042;-78
2021/01/30 14:14:47;;;;;;;10.52;4.93;;;8.50;99.90;;;;;;6258030;28;20852;-78
2021/01/30 14:17:51;;;;;;;18.30;3.83;;;8.50;99.90;;;;;;6261485;28;20127;-78
2021/01/30 14:20:52;;;;;;;5.18;3.30;;;8.50;99.90;;;;;;6249528;28;20073;-78
2021/01/30 14:23:54;;;;;;;12.68;4.40;;;8.50;99.90;;;;;;6249761;28;20045;-79
2021/01/30 14:26:55;;;;;;;11.52;4.30;;;8.40;99.90;;;;;;6252233;28;20135;-77
2021/01/30 14:29:58;;;;;;;10.45;4.10;;;8.40;99.90;;;;;;6257525;28;20162;-78
2021/01/30 14:33:01;;;;;;;96.57;87.22;;;8.40;99.90;;;;;;6259734;28;20068;-78
2021/01/30 14:36:03;;;;;;;11.63;8.50;;;8.50;99.90;;;;;;6245268;28;20067;-78
2021/01/30 14:39:05;;;;;;;6.03;4.32;;;9.20;99.90;;;;;;6261596;28;20045;-78
2021/01/30 14:42:06;;;;;;;10.75;3.50;;;9.40;99.90;;;;;;6260226;28;20124;-78
2021/01/30 14:45:09;;;;;;;10.45;4.65;;;9.30;99.90;;;;;;6264449;28;20064;-77
2021/01/30 14:48:12;;;;;;;11.80;4.05;;;9.10;99.90;;;;;;6274224;28;20041;-79
2021/01/30 14:51:13;;;;;;;8.05;3.28;;;8.80;99.90;;;;;;6273111;28;20110;-79
2021/01/30 14:54:15;;;;;;;12.75;4.35;;;8.70;99.90;;;;;;6267126;28;20080;-78
2021/01/30 14:57:16;;;;;;;13.70;5.57;;;8.50;99.90;;;;;;6262369;28;20563;-78
2021/01/30 15:00:19;;;;;;;9.65;3.55;;;8.40;99.90;;;;;;6248360;28;20087;-79
2021/01/30 15:03:22;;;;;;;12.05;3.90;;;8.30;99.90;;;;;;6267941;28;20144;-80
2021/01/30 15:06:23;;;;;;;6.20;2.67;;;8.20;99.90;;;;;;6264686;28;20053;-78
2021/01/30 15:09:25;;;;;;;7.78;3.95;;;8.00;99.90;;;;;;6257368;28;20068;-79
2021/01/30 15:12:26;;;;;;;9.50;3.63;;;7.90;99.90;;;;;;6258035;28;20052;-80
2021/01/30 15:15:28;;;;;;;9.00;2.83;;;7.70;99.90;;;;;;6259186;28;20053;-80
2021/01/30 15:18:30;;;;;;;13.23;2.75;;;7.70;99.90;;;;;;6261521;28;20053;-79
2021/01/30 15:21:32;;;;;;;12.23;3.05;;;7.60;99.90;;;;;;6264280;28;20078;-79
2021/01/30 15:24:33;;;;;;;7.53;1.95;;;7.60;99.90;;;;;;6268972;28;20037;-79
2021/01/30 15:27:34;;;;;;;8.90;2.75;;;7.50;99.90;;;;;;6252667;28;20045;-78
2021/01/30 15:30:36;;;;;;;5.47;2.70;;;7.50;99.90;;;;;;6260924;28;20111;-78
2021/01/30 15:33:38;;;;;;;6.28;4.28;;;7.60;99.90;;;;;;6260555;28;20041;-78
2021/01/30 15:36:41;;;;;;;8.18;3.78;;;7.50;99.90;;;;;;6252450;28;20076;-79
2021/01/30 15:39:43;;;;;;;9.48;6.05;;;7.50;99.90;;;;;;6260665;28;20101;-79
2021/01/30 15:42:44;;;;;;;9.85;3.95;;;7.60;99.90;;;;;;6252696;28;20053;-79
2021/01/30 15:45:45;;;;;;;12.45;3.78;;;7.60;99.90;;;;;;6258191;28;20045;-79
2021/01/30 15:48:47;;;;;;;19.50;7.05;;;7.50;99.90;;;;;;6256102;28;20037;-79
2021/01/30 15:51:49;;;;;;;11.90;5.13;;;7.50;99.90;;;;;;6265405;28;20051;-79
2021/01/30 15:54:51;;;;;;;9.27;4.95;;;7.40;99.90;;;;;;6270485;28;20045;-79
2021/01/30 15:57:52;;;;;;;14.07;4.05;;;7.40;99.90;;;;;;6262527;28;20127;-79
2021/01/30 16:00:54;;;;;;;15.45;5.05;;;7.30;99.90;;;;;;6265431;28;20107;-80
2021/01/30 16:03:56;;;;;;;13.02;5.57;;;7.30;99.90;;;;;;6269541;28;20116;-80
2021/01/30 16:06:58;;;;;;;9.23;5.32;;;7.30;99.90;;;;;;6275723;28;20049;-79
2021/01/30 16:09:59;;;;;;;15.02;5.40;;;7.30;99.90;;;;;;6269684;28;20049;-80
2021/01/30 16:13:00;;;;;;;10.60;4.97;;;7.30;99.90;;;;;;6272527;28;20137;-78